sensor_id;sensor_type;location;lat;lon;timestamp;P1;durP1;ratioP1;P2;durP2;ratioP2
1360;SDS011;674;45.552;-122.600;2023-01-08T00:01:44;5.13;;;3.00;;
1360;SDS011;674;45.552;-122.600;2023-01-08T00:04:12;3.30;;;2.40;;
1360;SDS011;674;45.552;-122.600;2023-01-08T00:06:42;3.70;;;2.27;;
1360;SDS011;674;45.552;-122.600;2023-01-08T00:09:11;3.23;;;2.17;;
1360;SDS011;674;45.552;-122.600;2023-01-08T00:11:39;4.37;;;2.43;;
1360;SDS011;674;45.552;-122.600;2023-01-08T00:14:09;3.07;;;2.07;;
1360;SDS011;674;45.552;-122.600;2023-01-08T00:16:38;5.67;;;2.00;;
1360;SDS011;674;45.552;-122.600;2023-01-08T00:19:07;3.43;;;1.57;;
1360;SDS011;674;45.552;-122.600;2023-01-08T00:21:36;3.43;;;1.97;;
1360;SDS011;674;45.552;-122.600;2023-01-08T00:24:05;3.63;;;1.60;;
1360;SDS011;674;45.552;-122.600;2023-01-08T00:26:33;3.20;;;1.70;;
1360;SDS011;674;45.552;-122.600;2023-01-08T00:29:02;2.90;;;1.33;;
1360;SDS011;674;45.552;-122.600;2023-01-08T00:31:30;5.00;;;1.70;;
1360;SDS011;674;45.552;-122.600;2023-01-08T00:33:59;2.93;;;1.50;;
1360;SDS011;674;45.552;-122.600;2023-01-08T00:36:27;3.10;;;1.60;;
1360;SDS011;674;45.552;-122.600;2023-01-08T00:38:57;3.63;;;1.37;;
1360;SDS011;674;45.552;-122.600;2023-01-08T00:41:26;3.90;;;1.67;;
1360;SDS011;674;45.552;-122.600;2023-01-08T00:43:55;2.87;;;1.50;;
1360;SDS011;674;45.552;-122.600;2023-01-08T00:46:23;2.23;;;1.27;;
1360;SDS011;674;45.552;-122.600;2023-01-08T00:48:52;3.63;;;1.70;;
1360;SDS011;674;45.552;-122.600;2023-01-08T00:51:20;2.30;;;1.37;;
1360;SDS011;674;45.552;-122.600;2023-01-08T00:53:49;3.00;;;1.60;;
1360;SDS011;674;45.552;-122.600;2023-01-08T00:56:18;2.27;;;1.30;;
1360;SDS011;674;45.552;-122.600;2023-01-08T00:58:46;2.60;;;1.47;;
1360;SDS011;674;45.552;-122.600;2023-01-08T01:01:15;2.50;;;1.37;;
1360;SDS011;674;45.552;-122.600;2023-01-08T01:03:43;4.70;;;2.07;;
1360;SDS011;674;45.552;-122.600;2023-01-08T01:06:12;2.77;;;1.60;;
1360;SDS011;674;45.552;-122.600;2023-01-08T01:08:41;2.73;;;1.63;;
1360;SDS011;674;45.552;-122.600;2023-01-08T01:11:20;3.23;;;1.73;;
1360;SDS011;674;45.552;-122.600;2023-01-08T01:13:53;3.53;;;1.60;;
1360;SDS011;674;45.552;-122.600;2023-01-08T01:16:23;2.80;;;1.80;;
1360;SDS011;674;45.552;-122.600;2023-01-08T01:18:52;3.67;;;2.00;;
1360;SDS011;674;45.552;-122.600;2023-01-08T01:21:27;3.40;;;2.10;;
1360;SDS011;674;45.552;-122.600;2023-01-08T01:23:58;2.53;;;1.43;;
1360;SDS011;674;45.552;-122.600;2023-01-08T01:26:30;5.00;;;1.70;;
1360;SDS011;674;45.552;-122.600;2023-01-08T01:28:59;3.60;;;1.47;;
1360;SDS011;674;45.552;-122.600;2023-01-08T01:31:29;2.70;;;1.63;;
1360;SDS011;674;45.552;-122.600;2023-01-08T01:33:58;2.70;;;1.50;;
1360;SDS011;674;45.552;-122.600;2023-01-08T01:36:27;3.53;;;2.00;;
1360;SDS011;674;45.552;-122.600;2023-01-08T01:38:56;3.23;;;1.60;;
1360;SDS011;674;45.552;-122.600;2023-01-08T01:41:32;11.50;;;7.80;;
1360;SDS011;674;45.552;-122.600;2023-01-08T01:47:37;21.90;;;19.63;;
1360;SDS011;674;45.552;-122.600;2023-01-08T01:52:51;3.03;;;2.13;;
1360;SDS011;674;45.552;-122.600;2023-01-08T01:55:49;13.67;;;10.10;;
1360;SDS011;674;45.552;-122.600;2023-01-08T01:58:27;4.00;;;2.63;;
1360;SDS011;674;45.552;-122.600;2023-01-08T02:01:00;4.70;;;2.20;;
1360;SDS011;674;45.552;-122.600;2023-01-08T02:03:33;2.40;;;1.70;;
1360;SDS011;674;45.552;-122.600;2023-01-08T02:06:12;10.17;;;8.17;;
1360;SDS011;674;45.552;-122.600;2023-01-08T02:17:41;5.47;;;3.30;;
1360;SDS011;674;45.552;-122.600;2023-01-08T02:20:46;4.27;;;3.07;;
1360;SDS011;674;45.552;-122.600;2023-01-08T02:26:34;5.63;;;3.13;;
1360;SDS011;674;45.552;-122.600;2023-01-08T02:29:07;4.23;;;3.40;;
1360;SDS011;674;45.552;-122.600;2023-01-08T02:31:38;5.43;;;4.20;;
1360;SDS011;674;45.552;-122.600;2023-01-08T02:34:09;10.77;;;8.07;;
1360;SDS011;674;45.552;-122.600;2023-01-08T02:36:47;5.33;;;4.17;;
1360;SDS011;674;45.552;-122.600;2023-01-08T02:44:57;7.07;;;3.70;;
1360;SDS011;674;45.552;-122.600;2023-01-08T02:47:30;6.70;;;4.40;;
1360;SDS011;674;45.552;-122.600;2023-01-08T02:55:32;4.67;;;3.97;;
1360;SDS011;674;45.552;-122.600;2023-01-08T02:58:03;11.17;;;7.93;;
1360;SDS011;674;45.552;-122.600;2023-01-08T03:00:32;13.07;;;9.70;;
1360;SDS011;674;45.552;-122.600;2023-01-08T03:03:07;11.17;;;8.30;;
1360;SDS011;674;45.552;-122.600;2023-01-08T03:05:47;10.30;;;7.80;;
1360;SDS011;674;45.552;-122.600;2023-01-08T03:08:18;5.30;;;3.53;;
1360;SDS011;674;45.552;-122.600;2023-01-08T03:10:48;11.53;;;8.80;;
1360;SDS011;674;45.552;-122.600;2023-01-08T03:13:25;9.03;;;5.20;;
1360;SDS011;674;45.552;-122.600;2023-01-08T03:16:08;4.60;;;3.13;;
1360;SDS011;674;45.552;-122.600;2023-01-08T03:22:06;5.00;;;2.93;;
1360;SDS011;674;45.552;-122.600;2023-01-08T03:24:38;13.00;;;9.07;;
1360;SDS011;674;45.552;-122.600;2023-01-08T03:27:09;6.60;;;3.13;;
1360;SDS011;674;45.552;-122.600;2023-01-08T03:29:43;5.83;;;4.10;;
1360;SDS011;674;45.552;-122.600;2023-01-08T03:32:15;4.70;;;3.50;;
1360;SDS011;674;45.552;-122.600;2023-01-08T03:34:47;5.50;;;4.03;;
1360;SDS011;674;45.552;-122.600;2023-01-08T03:37:19;7.97;;;6.03;;
1360;SDS011;674;45.552;-122.600;2023-01-08T03:39:56;6.30;;;5.70;;
1360;SDS011;674;45.552;-122.600;2023-01-08T03:42:31;6.60;;;5.67;;
1360;SDS011;674;45.552;-122.600;2023-01-08T03:45:00;6.83;;;6.00;;
1360;SDS011;674;45.552;-122.600;2023-01-08T03:47:29;7.73;;;6.17;;
1360;SDS011;674;45.552;-122.600;2023-01-08T03:50:00;5.93;;;5.00;;
1360;SDS011;674;45.552;-122.600;2023-01-08T03:52:32;11.50;;;7.40;;
1360;SDS011;674;45.552;-122.600;2023-01-08T03:55:01;8.23;;;6.07;;
1360;SDS011;674;45.552;-122.600;2023-01-08T03:57:30;12.93;;;7.27;;
1360;SDS011;674;45.552;-122.600;2023-01-08T03:59:58;16.03;;;10.20;;
1360;SDS011;674;45.552;-122.600;2023-01-08T04:02:26;9.00;;;6.10;;
1360;SDS011;674;45.552;-122.600;2023-01-08T04:04:55;3.50;;;2.60;;
1360;SDS011;674;45.552;-122.600;2023-01-08T04:07:23;35.87;;;20.37;;
1360;SDS011;674;45.552;-122.600;2023-01-08T04:09:52;16.63;;;9.10;;
1360;SDS011;674;45.552;-122.600;2023-01-08T04:12:20;9.23;;;5.50;;
1360;SDS011;674;45.552;-122.600;2023-01-08T04:14:50;4.90;;;3.77;;
1360;SDS011;674;45.552;-122.600;2023-01-08T04:17:19;8.13;;;5.50;;
1360;SDS011;674;45.552;-122.600;2023-01-08T04:19:47;5.90;;;4.40;;
1360;SDS011;674;45.552;-122.600;2023-01-08T04:22:16;4.63;;;3.50;;
1360;SDS011;674;45.552;-122.600;2023-01-08T04:24:44;7.50;;;6.10;;
1360;SDS011;674;45.552;-122.600;2023-01-08T04:27:13;4.40;;;2.50;;
1360;SDS011;674;45.552;-122.600;2023-01-08T04:29:42;3.67;;;3.27;;
1360;SDS011;674;45.552;-122.600;2023-01-08T04:32:10;3.40;;;2.40;;
1360;SDS011;674;45.552;-122.600;2023-01-08T04:34:39;3.57;;;1.97;;
1360;SDS011;674;45.552;-122.600;2023-01-08T04:37:07;3.57;;;2.17;;
1360;SDS011;674;45.552;-122.600;2023-01-08T04:39:36;3.77;;;2.60;;
1360;SDS011;674;45.552;-122.600;2023-01-08T04:42:04;4.57;;;2.60;;
1360;SDS011;674;45.552;-122.600;2023-01-08T04:44:33;3.53;;;2.57;;
1360;SDS011;674;45.552;-122.600;2023-01-08T04:47:01;6.63;;;2.67;;
1360;SDS011;674;45.552;-122.600;2023-01-08T04:49:30;4.30;;;2.60;;
1360;SDS011;674;45.552;-122.600;2023-01-08T04:51:58;3.77;;;2.60;;
1360;SDS011;674;45.552;-122.600;2023-01-08T04:54:27;5.83;;;5.20;;
1360;SDS011;674;45.552;-122.600;2023-01-08T04:56:55;4.70;;;2.40;;
1360;SDS011;674;45.552;-122.600;2023-01-08T04:59:24;4.50;;;2.90;;
1360;SDS011;674;45.552;-122.600;2023-01-08T05:01:53;5.83;;;4.43;;
1360;SDS011;674;45.552;-122.600;2023-01-08T05:04:23;5.53;;;4.70;;
1360;SDS011;674;45.552;-122.600;2023-01-08T05:06:52;4.70;;;2.97;;
1360;SDS011;674;45.552;-122.600;2023-01-08T05:09:20;3.60;;;2.50;;
1360;SDS011;674;45.552;-122.600;2023-01-08T05:11:48;5.97;;;2.80;;
1360;SDS011;674;45.552;-122.600;2023-01-08T05:14:17;3.30;;;2.97;;
1360;SDS011;674;45.552;-122.600;2023-01-08T05:16:46;3.90;;;2.20;;
1360;SDS011;674;45.552;-122.600;2023-01-08T05:19:14;4.50;;;2.33;;
1360;SDS011;674;45.552;-122.600;2023-01-08T05:21:45;3.23;;;2.47;;
1360;SDS011;674;45.552;-122.600;2023-01-08T05:24:14;3.80;;;2.87;;
1360;SDS011;674;45.552;-122.600;2023-01-08T05:26:43;3.40;;;2.57;;
1360;SDS011;674;45.552;-122.600;2023-01-08T05:29:12;2.73;;;2.00;;
1360;SDS011;674;45.552;-122.600;2023-01-08T05:31:40;2.97;;;1.97;;
1360;SDS011;674;45.552;-122.600;2023-01-08T05:34:09;4.57;;;1.83;;
1360;SDS011;674;45.552;-122.600;2023-01-08T05:36:37;4.30;;;2.50;;
1360;SDS011;674;45.552;-122.600;2023-01-08T05:39:06;3.43;;;1.90;;
1360;SDS011;674;45.552;-122.600;2023-01-08T05:41:34;2.80;;;1.90;;
1360;SDS011;674;45.552;-122.600;2023-01-08T05:44:03;4.27;;;2.67;;
1360;SDS011;674;45.552;-122.600;2023-01-08T05:46:31;5.03;;;3.10;;
1360;SDS011;674;45.552;-122.600;2023-01-08T05:49:00;4.77;;;3.17;;
1360;SDS011;674;45.552;-122.600;2023-01-08T05:51:28;3.70;;;1.73;;
1360;SDS011;674;45.552;-122.600;2023-01-08T05:53:57;3.80;;;2.67;;
1360;SDS011;674;45.552;-122.600;2023-01-08T05:56:25;4.13;;;2.70;;
1360;SDS011;674;45.552;-122.600;2023-01-08T05:58:54;5.70;;;4.43;;
1360;SDS011;674;45.552;-122.600;2023-01-08T06:01:22;7.53;;;3.70;;
1360;SDS011;674;45.552;-122.600;2023-01-08T06:03:53;4.03;;;2.30;;
1360;SDS011;674;45.552;-122.600;2023-01-08T06:06:23;4.13;;;3.10;;
1360;SDS011;674;45.552;-122.600;2023-01-08T06:08:51;4.20;;;3.20;;
1360;SDS011;674;45.552;-122.600;2023-01-08T06:11:20;5.30;;;3.80;;
1360;SDS011;674;45.552;-122.600;2023-01-08T06:13:48;2.80;;;1.80;;
1360;SDS011;674;45.552;-122.600;2023-01-08T06:16:17;4.63;;;2.10;;
1360;SDS011;674;45.552;-122.600;2023-01-08T06:18:47;3.00;;;2.03;;
1360;SDS011;674;45.552;-122.600;2023-01-08T06:21:17;3.27;;;1.70;;
1360;SDS011;674;45.552;-122.600;2023-01-08T06:23:45;3.17;;;1.87;;
1360;SDS011;674;45.552;-122.600;2023-01-08T06:26:14;3.60;;;1.80;;
1360;SDS011;674;45.552;-122.600;2023-01-08T06:28:42;3.30;;;1.97;;
1360;SDS011;674;45.552;-122.600;2023-01-08T06:31:10;2.90;;;1.63;;
1360;SDS011;674;45.552;-122.600;2023-01-08T06:33:39;3.50;;;1.60;;
1360;SDS011;674;45.552;-122.600;2023-01-08T06:36:08;3.17;;;2.03;;
1360;SDS011;674;45.552;-122.600;2023-01-08T06:38:36;4.20;;;2.17;;
1360;SDS011;674;45.552;-122.600;2023-01-08T06:41:07;2.93;;;2.20;;
1360;SDS011;674;45.552;-122.600;2023-01-08T06:43:37;3.30;;;2.00;;
1360;SDS011;674;45.552;-122.600;2023-01-08T06:46:06;3.20;;;2.10;;
1360;SDS011;674;45.552;-122.600;2023-01-08T06:48:35;3.80;;;2.37;;
1360;SDS011;674;45.552;-122.600;2023-01-08T06:51:04;3.60;;;1.97;;
1360;SDS011;674;45.552;-122.600;2023-01-08T06:53:33;4.10;;;2.33;;
1360;SDS011;674;45.552;-122.600;2023-01-08T06:56:02;4.20;;;2.87;;
1360;SDS011;674;45.552;-122.600;2023-01-08T06:58:31;3.10;;;2.50;;
1360;SDS011;674;45.552;-122.600;2023-01-08T07:00:59;4.00;;;2.30;;
1360;SDS011;674;45.552;-122.600;2023-01-08T07:03:28;4.13;;;2.50;;
1360;SDS011;674;45.552;-122.600;2023-01-08T07:05:56;2.57;;;1.80;;
1360;SDS011;674;45.552;-122.600;2023-01-08T07:08:25;3.57;;;2.03;;
1360;SDS011;674;45.552;-122.600;2023-01-08T07:10:53;2.80;;;1.67;;
1360;SDS011;674;45.552;-122.600;2023-01-08T07:13:22;3.57;;;2.10;;
1360;SDS011;674;45.552;-122.600;2023-01-08T07:15:51;3.10;;;2.20;;
1360;SDS011;674;45.552;-122.600;2023-01-08T07:18:20;3.00;;;2.10;;
1360;SDS011;674;45.552;-122.600;2023-01-08T07:20:49;4.37;;;2.10;;
1360;SDS011;674;45.552;-122.600;2023-01-08T07:23:17;4.00;;;2.00;;
1360;SDS011;674;45.552;-122.600;2023-01-08T07:25:46;3.23;;;2.03;;
1360;SDS011;674;45.552;-122.600;2023-01-08T07:28:14;3.00;;;1.97;;
1360;SDS011;674;45.552;-122.600;2023-01-08T07:30:43;3.40;;;2.10;;
1360;SDS011;674;45.552;-122.600;2023-01-08T07:33:11;3.50;;;2.30;;
1360;SDS011;674;45.552;-122.600;2023-01-08T07:35:40;3.40;;;2.23;;
1360;SDS011;674;45.552;-122.600;2023-01-08T07:38:09;3.37;;;2.37;;
1360;SDS011;674;45.552;-122.600;2023-01-08T07:40:37;5.53;;;2.80;;
1360;SDS011;674;45.552;-122.600;2023-01-08T07:43:07;3.40;;;2.30;;
1360;SDS011;674;45.552;-122.600;2023-01-08T07:45:38;4.90;;;2.80;;
1360;SDS011;674;45.552;-122.600;2023-01-08T07:48:07;3.60;;;2.47;;
1360;SDS011;674;45.552;-122.600;2023-01-08T07:50:36;3.30;;;2.40;;
1360;SDS011;674;45.552;-122.600;2023-01-08T07:53:07;4.50;;;3.10;;
1360;SDS011;674;45.552;-122.600;2023-01-08T07:55:36;6.60;;;3.80;;
1360;SDS011;674;45.552;-122.600;2023-01-08T07:58:08;4.00;;;3.17;;
1360;SDS011;674;45.552;-122.600;2023-01-08T08:00:38;4.10;;;3.23;;
1360;SDS011;674;45.552;-122.600;2023-01-08T08:03:08;3.53;;;2.53;;
1360;SDS011;674;45.552;-122.600;2023-01-08T08:05:38;3.40;;;2.70;;
1360;SDS011;674;45.552;-122.600;2023-01-08T08:08:07;5.53;;;3.37;;
1360;SDS011;674;45.552;-122.600;2023-01-08T08:10:38;4.83;;;3.33;;
1360;SDS011;674;45.552;-122.600;2023-01-08T08:13:08;4.20;;;2.90;;
1360;SDS011;674;45.552;-122.600;2023-01-08T08:15:37;4.87;;;3.60;;
1360;SDS011;674;45.552;-122.600;2023-01-08T08:18:08;4.23;;;3.40;;
1360;SDS011;674;45.552;-122.600;2023-01-08T08:20:37;4.93;;;3.73;;
1360;SDS011;674;45.552;-122.600;2023-01-08T08:23:07;7.93;;;3.87;;
1360;SDS011;674;45.552;-122.600;2023-01-08T08:25:37;5.40;;;4.03;;
1360;SDS011;674;45.552;-122.600;2023-01-08T08:28:06;5.17;;;4.03;;
1360;SDS011;674;45.552;-122.600;2023-01-08T08:30:36;6.57;;;4.20;;
1360;SDS011;674;45.552;-122.600;2023-01-08T08:33:08;18.05;;;6.20;;
1360;SDS011;674;45.552;-122.600;2023-01-08T08:35:37;8.20;;;3.90;;
1360;SDS011;674;45.552;-122.600;2023-01-08T08:38:06;7.00;;;3.80;;
1360;SDS011;674;45.552;-122.600;2023-01-08T08:40:34;7.87;;;4.60;;
1360;SDS011;674;45.552;-122.600;2023-01-08T08:43:03;5.93;;;4.53;;
1360;SDS011;674;45.552;-122.600;2023-01-08T08:45:32;7.30;;;5.47;;
1360;SDS011;674;45.552;-122.600;2023-01-08T08:48:00;7.70;;;5.20;;
1360;SDS011;674;45.552;-122.600;2023-01-08T08:50:29;9.33;;;6.17;;
1360;SDS011;674;45.552;-122.600;2023-01-08T08:52:58;12.77;;;5.37;;
1360;SDS011;674;45.552;-122.600;2023-01-08T08:55:28;9.13;;;6.40;;
1360;SDS011;674;45.552;-122.600;2023-01-08T08:58:07;7.50;;;5.40;;
1360;SDS011;674;45.552;-122.600;2023-01-08T09:00:38;11.67;;;6.23;;
1360;SDS011;674;45.552;-122.600;2023-01-08T09:03:16;9.53;;;6.33;;
1360;SDS011;674;45.552;-122.600;2023-01-08T09:05:45;17.23;;;7.07;;
1360;SDS011;674;45.552;-122.600;2023-01-08T09:08:14;8.23;;;6.07;;
1360;SDS011;674;45.552;-122.600;2023-01-08T09:10:43;8.40;;;6.50;;
1360;SDS011;674;45.552;-122.600;2023-01-08T09:13:11;10.00;;;7.03;;
1360;SDS011;674;45.552;-122.600;2023-01-08T09:15:41;7.63;;;6.10;;
1360;SDS011;674;45.552;-122.600;2023-01-08T09:18:10;7.90;;;6.10;;
1360;SDS011;674;45.552;-122.600;2023-01-08T09:20:41;12.67;;;7.40;;
1360;SDS011;674;45.552;-122.600;2023-01-08T09:23:09;7.70;;;5.63;;
1360;SDS011;674;45.552;-122.600;2023-01-08T09:25:39;7.93;;;6.10;;
1360;SDS011;674;45.552;-122.600;2023-01-08T09:28:09;11.10;;;7.80;;
1360;SDS011;674;45.552;-122.600;2023-01-08T09:30:39;11.67;;;8.47;;
1360;SDS011;674;45.552;-122.600;2023-01-08T09:33:07;11.67;;;7.83;;
1360;SDS011;674;45.552;-122.600;2023-01-08T09:35:36;8.90;;;6.80;;
1360;SDS011;674;45.552;-122.600;2023-01-08T09:38:05;9.90;;;7.57;;
1360;SDS011;674;45.552;-122.600;2023-01-08T09:41:16;11.83;;;7.70;;
1360;SDS011;674;45.552;-122.600;2023-01-08T09:43:30;9.10;;;6.90;;
1360;SDS011;674;45.552;-122.600;2023-01-08T09:46:02;11.13;;;6.60;;
1360;SDS011;674;45.552;-122.600;2023-01-08T09:48:37;8.47;;;6.70;;
1360;SDS011;674;45.552;-122.600;2023-01-08T09:51:13;10.67;;;8.17;;
1360;SDS011;674;45.552;-122.600;2023-01-08T09:53:44;12.03;;;9.07;;
1360;SDS011;674;45.552;-122.600;2023-01-08T09:56:16;8.10;;;6.60;;
1360;SDS011;674;45.552;-122.600;2023-01-08T10:01:22;11.93;;;7.27;;
1360;SDS011;674;45.552;-122.600;2023-01-08T10:03:59;9.10;;;7.63;;
1360;SDS011;674;45.552;-122.600;2023-01-08T10:06:30;9.70;;;7.50;;
1360;SDS011;674;45.552;-122.600;2023-01-08T10:09:00;9.73;;;8.40;;
1360;SDS011;674;45.552;-122.600;2023-01-08T10:11:41;9.87;;;7.60;;
1360;SDS011;674;45.552;-122.600;2023-01-08T10:14:18;11.33;;;7.97;;
1360;SDS011;674;45.552;-122.600;2023-01-08T10:16:51;11.10;;;7.77;;
1360;SDS011;674;45.552;-122.600;2023-01-08T10:19:28;10.27;;;7.37;;
1360;SDS011;674;45.552;-122.600;2023-01-08T10:21:56;12.57;;;9.47;;
1360;SDS011;674;45.552;-122.600;2023-01-08T10:24:30;12.90;;;9.50;;
1360;SDS011;674;45.552;-122.600;2023-01-08T10:27:06;8.90;;;7.60;;
1360;SDS011;674;45.552;-122.600;2023-01-08T10:29:43;12.10;;;8.50;;
1360;SDS011;674;45.552;-122.600;2023-01-08T10:34:48;9.73;;;7.97;;
1360;SDS011;674;45.552;-122.600;2023-01-08T10:42:49;15.97;;;10.07;;
1360;SDS011;674;45.552;-122.600;2023-01-08T10:45:22;23.03;;;16.70;;
1360;SDS011;674;45.552;-122.600;2023-01-08T10:47:58;33.20;;;22.37;;
1360;SDS011;674;45.552;-122.600;2023-01-08T10:50:31;64.30;;;37.03;;
1360;SDS011;674;45.552;-122.600;2023-01-08T10:53:05;74.20;;;44.63;;
1360;SDS011;674;45.552;-122.600;2023-01-08T10:55:59;73.93;;;44.30;;
1360;SDS011;674;45.552;-122.600;2023-01-08T10:58:28;74.77;;;41.83;;
1360;SDS011;674;45.552;-122.600;2023-01-08T11:01:21;39.97;;;24.93;;
1360;SDS011;674;45.552;-122.600;2023-01-08T11:03:56;39.13;;;27.37;;
1360;SDS011;674;45.552;-122.600;2023-01-08T11:06:33;35.63;;;24.77;;
1360;SDS011;674;45.552;-122.600;2023-01-08T11:09:18;29.97;;;20.80;;
1360;SDS011;674;45.552;-122.600;2023-01-08T11:11:51;18.50;;;13.50;;
1360;SDS011;674;45.552;-122.600;2023-01-08T11:14:21;15.77;;;11.40;;
1360;SDS011;674;45.552;-122.600;2023-01-08T11:16:54;14.40;;;9.87;;
1360;SDS011;674;45.552;-122.600;2023-01-08T11:19:29;18.73;;;12.93;;
1360;SDS011;674;45.552;-122.600;2023-01-08T11:22:04;16.00;;;10.30;;
1360;SDS011;674;45.552;-122.600;2023-01-08T11:24:43;16.33;;;11.60;;
1360;SDS011;674;45.552;-122.600;2023-01-08T11:35:18;9.47;;;7.20;;
1360;SDS011;674;45.552;-122.600;2023-01-08T11:51:35;3.73;;;2.90;;
1360;SDS011;674;45.552;-122.600;2023-01-08T11:54:29;3.60;;;2.57;;
1360;SDS011;674;45.552;-122.600;2023-01-08T11:57:39;4.00;;;2.47;;
1360;SDS011;674;45.552;-122.600;2023-01-08T12:09:38;2.70;;;1.90;;
1360;SDS011;674;45.552;-122.600;2023-01-08T12:15:24;2.80;;;1.57;;
1360;SDS011;674;45.552;-122.600;2023-01-08T12:20:55;2.30;;;1.33;;
1360;SDS011;674;45.552;-122.600;2023-01-08T12:24:03;2.37;;;1.00;;
1360;SDS011;674;45.552;-122.600;2023-01-08T12:36:17;2.47;;;1.43;;
1360;SDS011;674;45.552;-122.600;2023-01-08T12:39:03;2.00;;;1.10;;
1360;SDS011;674;45.552;-122.600;2023-01-08T12:41:53;2.30;;;1.13;;
1360;SDS011;674;45.552;-122.600;2023-01-08T12:44:29;3.30;;;1.43;;
1360;SDS011;674;45.552;-122.600;2023-01-08T12:46:59;2.60;;;1.70;;
1360;SDS011;674;45.552;-122.600;2023-01-08T12:49:39;2.47;;;1.30;;
1360;SDS011;674;45.552;-122.600;2023-01-08T12:52:25;2.50;;;1.40;;
1360;SDS011;674;45.552;-122.600;2023-01-08T12:57:54;2.37;;;0.90;;
1360;SDS011;674;45.552;-122.600;2023-01-08T13:01:21;2.33;;;1.03;;
1360;SDS011;674;45.552;-122.600;2023-01-08T13:03:59;5.33;;;3.87;;
1360;SDS011;674;45.552;-122.600;2023-01-08T13:06:31;2.80;;;1.47;;
1360;SDS011;674;45.552;-122.600;2023-01-08T13:08:59;2.57;;;1.20;;
1360;SDS011;674;45.552;-122.600;2023-01-08T13:11:32;2.90;;;1.60;;
1360;SDS011;674;45.552;-122.600;2023-01-08T13:14:05;2.93;;;1.83;;
1360;SDS011;674;45.552;-122.600;2023-01-08T13:16:36;5.37;;;3.10;;
1360;SDS011;674;45.552;-122.600;2023-01-08T13:19:21;1.80;;;0.77;;
1360;SDS011;674;45.552;-122.600;2023-01-08T13:21:51;2.23;;;1.03;;
1360;SDS011;674;45.552;-122.600;2023-01-08T13:24:30;1.97;;;1.10;;
1360;SDS011;674;45.552;-122.600;2023-01-08T13:29:45;2.10;;;1.07;;
1360;SDS011;674;45.552;-122.600;2023-01-08T13:37:42;2.20;;;1.10;;
1360;SDS011;674;45.552;-122.600;2023-01-08T13:43:05;2.87;;;1.50;;
1360;SDS011;674;45.552;-122.600;2023-01-08T13:45:40;2.40;;;1.30;;
1360;SDS011;674;45.552;-122.600;2023-01-08T13:48:23;2.90;;;1.47;;
1360;SDS011;674;45.552;-122.600;2023-01-08T13:50:56;2.57;;;1.40;;
1360;SDS011;674;45.552;-122.600;2023-01-08T13:53:25;3.67;;;1.33;;
1360;SDS011;674;45.552;-122.600;2023-01-08T13:56:02;2.40;;;1.13;;
1360;SDS011;674;45.552;-122.600;2023-01-08T13:58:35;1.97;;;0.90;;
1360;SDS011;674;45.552;-122.600;2023-01-08T14:01:17;2.23;;;1.30;;
1360;SDS011;674;45.552;-122.600;2023-01-08T14:03:48;2.10;;;0.90;;
1360;SDS011;674;45.552;-122.600;2023-01-08T14:06:17;3.60;;;1.40;;
1360;SDS011;674;45.552;-122.600;2023-01-08T14:08:51;2.87;;;1.00;;
1360;SDS011;674;45.552;-122.600;2023-01-08T14:11:32;2.03;;;1.03;;
1360;SDS011;674;45.552;-122.600;2023-01-08T14:14:12;2.37;;;1.30;;
1360;SDS011;674;45.552;-122.600;2023-01-08T14:16:42;2.30;;;1.40;;
1360;SDS011;674;45.552;-122.600;2023-01-08T14:19:29;3.60;;;1.87;;
1360;SDS011;674;45.552;-122.600;2023-01-08T14:21:59;3.50;;;1.80;;
1360;SDS011;674;45.552;-122.600;2023-01-08T14:24:32;3.07;;;1.70;;
1360;SDS011;674;45.552;-122.600;2023-01-08T14:27:02;2.80;;;1.53;;
1360;SDS011;674;45.552;-122.600;2023-01-08T14:29:31;2.27;;;1.33;;
1360;SDS011;674;45.552;-122.600;2023-01-08T14:32:10;2.40;;;1.53;;
1360;SDS011;674;45.552;-122.600;2023-01-08T14:34:43;2.63;;;1.20;;
1360;SDS011;674;45.552;-122.600;2023-01-08T14:37:14;4.43;;;1.10;;
1360;SDS011;674;45.552;-122.600;2023-01-08T14:39:44;2.63;;;1.40;;
1360;SDS011;674;45.552;-122.600;2023-01-08T14:42:23;2.20;;;1.20;;
1360;SDS011;674;45.552;-122.600;2023-01-08T14:45:17;2.07;;;1.17;;
1360;SDS011;674;45.552;-122.600;2023-01-08T14:47:49;3.00;;;1.50;;
1360;SDS011;674;45.552;-122.600;2023-01-08T14:50:41;2.23;;;1.10;;
1360;SDS011;674;45.552;-122.600;2023-01-08T14:55:50;3.13;;;1.33;;
1360;SDS011;674;45.552;-122.600;2023-01-08T14:58:25;2.77;;;1.27;;
1360;SDS011;674;45.552;-122.600;2023-01-08T15:00:57;3.10;;;1.60;;
1360;SDS011;674;45.552;-122.600;2023-01-08T15:03:30;3.13;;;1.53;;
1360;SDS011;674;45.552;-122.600;2023-01-08T15:06:07;3.03;;;1.50;;
1360;SDS011;674;45.552;-122.600;2023-01-08T15:08:40;3.13;;;1.30;;
1360;SDS011;674;45.552;-122.600;2023-01-08T15:11:18;2.30;;;1.23;;
1360;SDS011;674;45.552;-122.600;2023-01-08T15:13:50;3.37;;;1.20;;
1360;SDS011;674;45.552;-122.600;2023-01-08T15:16:32;2.30;;;1.23;;
1360;SDS011;674;45.552;-122.600;2023-01-08T15:19:05;2.73;;;1.27;;
1360;SDS011;674;45.552;-122.600;2023-01-08T15:21:38;2.80;;;1.23;;
1360;SDS011;674;45.552;-122.600;2023-01-08T15:24:55;2.87;;;1.30;;
1360;SDS011;674;45.552;-122.600;2023-01-08T15:27:14;3.23;;;2.50;;
1360;SDS011;674;45.552;-122.600;2023-01-08T15:29:50;2.83;;;1.43;;
1360;SDS011;674;45.552;-122.600;2023-01-08T15:32:27;2.17;;;1.00;;
1360;SDS011;674;45.552;-122.600;2023-01-08T15:34:58;2.13;;;1.20;;
1360;SDS011;674;45.552;-122.600;2023-01-08T15:37:27;2.40;;;1.20;;
1360;SDS011;674;45.552;-122.600;2023-01-08T15:39:56;2.53;;;1.13;;
1360;SDS011;674;45.552;-122.600;2023-01-08T15:42:27;4.00;;;1.10;;
1360;SDS011;674;45.552;-122.600;2023-01-08T15:45:29;2.30;;;1.20;;
1360;SDS011;674;45.552;-122.600;2023-01-08T15:48:01;2.47;;;1.30;;
1360;SDS011;674;45.552;-122.600;2023-01-08T15:50:30;3.27;;;1.27;;
1360;SDS011;674;45.552;-122.600;2023-01-08T15:53:03;2.73;;;1.20;;
1360;SDS011;674;45.552;-122.600;2023-01-08T15:55:34;2.30;;;1.17;;
1360;SDS011;674;45.552;-122.600;2023-01-08T15:58:03;2.30;;;1.10;;
1360;SDS011;674;45.552;-122.600;2023-01-08T16:00:32;2.13;;;1.47;;
1360;SDS011;674;45.552;-122.600;2023-01-08T16:03:02;2.97;;;1.10;;
1360;SDS011;674;45.552;-122.600;2023-01-08T16:05:34;2.10;;;0.90;;
1360;SDS011;674;45.552;-122.600;2023-01-08T16:08:03;2.50;;;1.10;;
1360;SDS011;674;45.552;-122.600;2023-01-08T16:10:32;2.17;;;1.07;;
1360;SDS011;674;45.552;-122.600;2023-01-08T16:13:01;2.27;;;0.97;;
1360;SDS011;674;45.552;-122.600;2023-01-08T16:15:31;4.33;;;1.23;;
1360;SDS011;674;45.552;-122.600;2023-01-08T16:17:59;2.10;;;1.10;;
1360;SDS011;674;45.552;-122.600;2023-01-08T16:20:28;2.93;;;0.97;;
1360;SDS011;674;45.552;-122.600;2023-01-08T16:22:56;3.20;;;1.33;;
1360;SDS011;674;45.552;-122.600;2023-01-08T16:25:25;3.80;;;1.33;;
1360;SDS011;674;45.552;-122.600;2023-01-08T16:27:53;2.20;;;1.10;;
1360;SDS011;674;45.552;-122.600;2023-01-08T16:30:22;2.10;;;1.13;;
1360;SDS011;674;45.552;-122.600;2023-01-08T16:32:51;3.97;;;2.57;;
1360;SDS011;674;45.552;-122.600;2023-01-08T16:35:21;2.30;;;1.10;;
1360;SDS011;674;45.552;-122.600;2023-01-08T16:37:49;3.33;;;2.33;;
1360;SDS011;674;45.552;-122.600;2023-01-08T16:40:18;3.40;;;1.80;;
1360;SDS011;674;45.552;-122.600;2023-01-08T16:42:47;2.50;;;1.23;;
1360;SDS011;674;45.552;-122.600;2023-01-08T16:45:15;2.97;;;1.80;;
1360;SDS011;674;45.552;-122.600;2023-01-08T16:47:44;3.90;;;1.53;;
1360;SDS011;674;45.552;-122.600;2023-01-08T16:50:12;2.80;;;1.57;;
1360;SDS011;674;45.552;-122.600;2023-01-08T16:52:41;2.90;;;1.93;;
1360;SDS011;674;45.552;-122.600;2023-01-08T16:55:09;3.07;;;1.80;;
1360;SDS011;674;45.552;-122.600;2023-01-08T16:57:38;3.27;;;1.60;;
1360;SDS011;674;45.552;-122.600;2023-01-08T17:00:07;3.87;;;2.40;;
1360;SDS011;674;45.552;-122.600;2023-01-08T17:02:36;4.70;;;2.70;;